Patterson, CA (95363)

1:18 PM PDT on September 01, 2014 (GMT -0700)
Machado/Crows Landing | Change Station
CLOSE
Current Station
Personal Weather Station
Location: Crows Landing, CA
Elevation: 92 ft
Nearby Weather Stations

Elev 92 ft 37.40 °N, 121.06 °W | Updated 19 minutes ago

Clear
Clear
90.7 °F
Feels Like 89 °F
N
7.0
Wind Variable Wind from NNW
Gusts 12.0 mph

Today
High -- | Low -- °F
--% Chance of Precip.
Yesterday
High -- | Low -- °F
Precip. -- in
6:35 AM 7:33 PM
Waxing Crescent, 44% visible
Pressure 29.78 in
Visibility 10.0 miles
Clouds Clear
Heat Index 89 °F
Dew Point 56 °F
Humidity 31%
Rainfall 0.00 in
Snow Depth Not available.
UV 10 out of 12
Pollen 8.40 out of 12
Ozone Good
PM2.5 Good
Flu Activity Not available.
METAR KMOD 011953Z 28008G16KT 10SM CLR 32/11 A2978 RMK AO2 SLP084 T03220111

More Conditions Fewer Conditions

Pressure 29.78 in
Visibility 10.0 miles
Clouds Clear
Heat Index 89 °F
Dew Point 56 °F
Humidity 31%
Rainfall 0.00 in
Snow Depth Not available.
UV 10 out of 12
Pollen 8.40 out of 12
Ozone Good
PM2.5 Good
Flu Activity Not available.
METAR KMOD 011953Z 28008G16KT 10SM CLR 32/11 A2978 RMK AO2 SLP084 T03220111

More Conditions Fewer Conditions

10-Day Weather Forecast

Almanac

Astronomy

Sep. 01, 2014 Rise Set
Actual Time 6:35 AM PDT 7:33 PM PDT
Civil Twilight 6:08 AM PDT 8:00 PM PDT
Nautical Twilight 5:36 AM PDT 8:32 PM PDT
Astronomical Twilight 5:03 AM PDT 9:04 PM PDT
Moon 1:18 PM PDT 11:47 PM PDT
Length of Visible Light 13h 51m
Length of Day
12h 58m
Tomorrow will be 2m 19s shorter.
Waxing Crescent, 44% of the Moon is Illuminated
Today
Waxing Crescent
Sep 2
First Quarter
Sep 8
Full
Sep 15
Last Quarter
Sep 24
New

Today's Extremes

State Highs State Lows

Community

WunderPhotos

Upload Photos

1,749,394 photos uploaded!

WunderBlogs® & News

Nearby

Air Quality

  Air Quality AQ Index Pollutant
Yesterday Good
OZONE
Yesterday Good
PM2.5
Current Good
PM2.5
Current Good
OZONE
Monday Good
OZONE
Tuesday Moderate
PM2.5
Wednesday Moderate
PM2.5
Thursday Moderate
PM2.5
Friday Good
PM2.5
Saturday Moderate
PM2.5

Snow Depth

Station Depth Elevation
Blue Lakes 0 in 8000 ft
Leavitt Meadows 0 in 7200 ft
Summit Meadow 0 in 9122 ft
Fallen Leaf 0 in 6300 ft
Rubicon #2 0 in 7500 ft

Earthquake Activity

City Distance Mag. Time & Date
Yountville, California 86 miles 2.6 1:15 PM PDT
2014-09-01
Gilroy, California 41 miles 3.5 9:10 AM PDT
2014-09-01
Green Valley, California 71 miles 2.5 6:37 AM PDT
2014-08-31
Napa, California 78 miles 3.2 1:56 AM PDT
2014-08-31
Minimum magnitude displayed is 2.5.

Coastal Water Temperatures

Place Temperature
No Stations Reporting

Nearby Weather Stations